createdAt,value
2022-08-17T00:00:52.130Z,345.00
2022-08-17T00:01:52.025Z,345.00
2022-08-17T00:02:50.281Z,343.00
2022-08-17T00:03:50.115Z,345.00
2022-08-17T00:04:50.788Z,344.00
2022-08-17T00:05:50.105Z,341.00
2022-08-17T00:06:50.088Z,340.00
2022-08-17T00:07:50.272Z,341.00
2022-08-17T00:08:50.024Z,343.00
2022-08-17T00:09:50.070Z,345.00
2022-08-17T00:10:50.058Z,348.00
2022-08-17T00:12:41.309Z,348.00
2022-08-17T00:12:50.016Z,349.00
2022-08-17T00:13:50.042Z,346.00
2022-08-17T00:14:50.022Z,347.00
2022-08-17T00:15:49.948Z,348.00
2022-08-17T00:16:56.082Z,348.00
2022-08-17T00:17:49.963Z,348.00
2022-08-17T00:19:06.324Z,348.00
2022-08-17T00:19:49.907Z,349.00
2022-08-17T00:20:49.909Z,348.00
2022-08-17T00:22:29.540Z,349.00
2022-08-17T00:22:50.268Z,349.00
2022-08-17T00:23:49.884Z,350.00
2022-08-17T00:24:49.837Z,353.00
2022-08-17T00:25:49.792Z,353.00
2022-08-17T00:26:49.805Z,350.00
2022-08-17T00:27:49.793Z,349.00
2022-08-17T00:28:49.802Z,348.00
2022-08-17T00:29:49.760Z,348.00
2022-08-17T00:30:53.001Z,350.00
2022-08-17T00:31:49.759Z,349.00
2022-08-17T00:33:12.432Z,350.00
2022-08-17T00:33:49.707Z,350.00
2022-08-17T00:34:49.692Z,348.00
2022-08-17T00:35:49.723Z,349.00
2022-08-17T00:36:49.732Z,349.00
2022-08-17T00:37:49.690Z,349.00
2022-08-17T00:38:49.672Z,349.00
2022-08-17T00:39:49.708Z,348.00
2022-08-17T00:40:49.621Z,346.00
2022-08-17T00:41:49.663Z,346.00
2022-08-17T00:42:49.777Z,347.00
2022-08-17T00:43:49.591Z,346.00
2022-08-17T00:44:49.547Z,347.00
2022-08-17T00:45:49.557Z,347.00
2022-08-17T00:46:49.546Z,349.00
2022-08-17T00:47:49.526Z,349.00
2022-08-17T00:48:49.499Z,349.00
2022-08-17T00:49:49.507Z,351.00
2022-08-17T00:50:49.482Z,350.00
2022-08-17T00:51:49.495Z,348.00
2022-08-17T00:52:49.632Z,348.00
2022-08-17T00:53:49.464Z,346.00
2022-08-17T00:54:49.406Z,341.00
2022-08-17T00:55:49.522Z,338.00
2022-08-17T00:56:49.416Z,337.00
2022-08-17T00:57:53.368Z,336.00
2022-08-17T00:58:49.385Z,337.00
2022-08-17T01:00:00.612Z,341.00
2022-08-17T01:00:49.411Z,340.00
2022-08-17T01:01:49.330Z,339.00
2022-08-17T01:02:49.346Z,338.00
2022-08-17T01:03:49.345Z,338.00
2022-08-17T01:04:49.316Z,339.00
2022-08-17T01:05:49.309Z,339.00
2022-08-17T01:06:49.264Z,340.00
2022-08-17T01:07:49.276Z,341.00
2022-08-17T01:08:49.312Z,342.00
2022-08-17T01:09:49.238Z,341.00
2022-08-17T01:11:00.583Z,343.00
2022-08-17T01:11:49.273Z,343.00
2022-08-17T01:12:49.361Z,343.00
2022-08-17T01:13:49.149Z,343.00
2022-08-17T01:14:49.200Z,345.00
2022-08-17T01:15:49.140Z,346.00
2022-08-17T01:16:49.206Z,345.00
2022-08-17T01:17:49.122Z,345.00
2022-08-17T01:18:49.150Z,347.00
2022-08-17T01:19:49.081Z,347.00
2022-08-17T01:20:49.109Z,347.00
2022-08-17T01:21:49.097Z,347.00
2022-08-17T01:22:49.234Z,348.00
2022-08-17T01:23:49.038Z,348.00
2022-08-17T01:24:49.052Z,349.00
2022-08-17T01:25:49.187Z,348.00
2022-08-17T01:26:49.090Z,349.00
2022-08-17T01:27:48.981Z,348.00
2022-08-17T01:28:55.110Z,347.00
2022-08-17T01:29:49.010Z,346.00
2022-08-17T01:30:58.678Z,342.00
2022-08-17T01:31:48.929Z,342.00
2022-08-17T01:32:49.156Z,343.00
2022-08-17T01:33:48.883Z,344.00
2022-08-17T01:34:50.606Z,342.00
2022-08-17T01:35:48.862Z,342.00
2022-08-17T01:36:48.919Z,343.00
2022-08-17T01:37:48.911Z,344.00
2022-08-17T01:38:48.853Z,344.00
2022-08-17T01:39:48.877Z,345.00
2022-08-17T01:40:48.806Z,344.00
2022-08-17T01:41:48.839Z,348.00
2022-08-17T01:42:49.053Z,349.00
2022-08-17T01:43:48.781Z,348.00
2022-08-17T01:44:48.756Z,349.00
2022-08-17T01:45:48.753Z,349.00
2022-08-17T01:46:48.750Z,348.00
2022-08-17T01:47:48.752Z,348.00
2022-08-17T01:48:48.777Z,347.00
2022-08-17T01:49:48.656Z,346.00
2022-08-17T01:50:48.680Z,348.00
2022-08-17T01:51:48.653Z,350.00
2022-08-17T01:52:49.054Z,352.00
2022-08-17T01:53:48.610Z,353.00
2022-08-17T01:54:48.625Z,355.00
2022-08-17T01:55:48.620Z,353.00
2022-08-17T01:56:48.613Z,352.00
2022-08-17T01:57:48.588Z,353.00
2022-08-17T01:58:48.627Z,354.00
2022-08-17T01:59:48.577Z,356.00
2022-08-17T02:01:00.732Z,358.00
2022-08-17T02:01:48.557Z,358.00
2022-08-17T02:02:48.619Z,360.00
2022-08-17T02:03:56.236Z,361.00
2022-08-17T02:04:48.486Z,362.00
2022-08-17T02:05:48.453Z,363.00
2022-08-17T02:06:54.219Z,362.00
2022-08-17T02:08:00.210Z,361.00
2022-08-17T02:09:01.539Z,361.00
2022-08-17T02:09:52.581Z,360.00
2022-08-17T02:10:48.445Z,356.00
2022-08-17T02:11:48.440Z,357.00
2022-08-17T02:12:48.401Z,356.00
2022-08-17T02:13:48.330Z,356.00
2022-08-17T02:14:48.378Z,357.00
2022-08-17T02:15:48.339Z,356.00
2022-08-17T02:16:48.334Z,357.00
2022-08-17T02:17:48.300Z,358.00
2022-08-17T02:18:48.293Z,357.00
2022-08-17T02:19:48.295Z,359.00
2022-08-17T02:20:48.311Z,358.00
2022-08-17T02:21:48.249Z,356.00
2022-08-17T02:22:48.393Z,355.00
2022-08-17T02:23:48.231Z,354.00
2022-08-17T02:24:59.509Z,355.00
2022-08-17T02:25:48.227Z,354.00
2022-08-17T02:26:48.170Z,355.00
2022-08-17T02:27:48.127Z,355.00
2022-08-17T02:28:48.178Z,354.00
2022-08-17T02:29:48.185Z,356.00
2022-08-17T02:30:59.056Z,355.00
2022-08-17T02:31:48.105Z,355.00
2022-08-17T02:32:48.166Z,359.00
2022-08-17T02:33:56.584Z,360.00
2022-08-17T02:34:48.101Z,359.00
2022-08-17T02:35:48.050Z,358.00
2022-08-17T02:36:48.074Z,359.00
2022-08-17T02:37:48.958Z,360.00
2022-08-17T02:38:48.027Z,359.00
2022-08-17T02:39:48.027Z,361.00
2022-08-17T02:40:47.991Z,360.00
2022-08-17T02:41:47.956Z,361.00
2022-08-17T02:42:47.941Z,362.00
2022-08-17T02:43:47.922Z,363.00
2022-08-17T02:44:47.937Z,364.00
2022-08-17T02:45:47.958Z,362.00
2022-08-17T02:46:47.915Z,362.00
2022-08-17T02:47:47.877Z,365.00
2022-08-17T02:48:47.916Z,367.00
2022-08-17T02:49:49.365Z,368.00
2022-08-17T02:50:47.873Z,369.00
2022-08-17T02:51:47.833Z,369.00
2022-08-17T02:52:55.231Z,370.00
2022-08-17T02:53:47.814Z,371.00
2022-08-17T02:54:47.842Z,371.00
2022-08-17T02:55:47.860Z,369.00
2022-08-17T02:56:47.775Z,369.00
2022-08-17T02:57:47.765Z,369.00
2022-08-17T02:58:47.771Z,368.00
2022-08-17T02:59:49.157Z,369.00
2022-08-17T03:00:47.710Z,369.00
2022-08-17T03:01:47.791Z,370.00
2022-08-17T03:02:47.874Z,369.00
2022-08-17T03:03:47.715Z,371.00
2022-08-17T03:04:47.654Z,370.00
2022-08-17T03:05:47.706Z,370.00
2022-08-17T03:06:47.650Z,371.00
2022-08-17T03:07:47.639Z,370.00
2022-08-17T03:08:47.635Z,369.00
2022-08-17T03:09:47.612Z,375.00
2022-08-17T03:10:47.644Z,371.00
2022-08-17T03:11:47.645Z,372.00
2022-08-17T03:12:47.596Z,374.00
2022-08-17T03:13:47.595Z,373.00
2022-08-17T03:14:47.535Z,373.00
2022-08-17T03:15:47.509Z,372.00
2022-08-17T03:16:47.528Z,368.00
2022-08-17T03:17:47.501Z,366.00
2022-08-17T03:18:47.458Z,366.00
2022-08-17T03:19:47.470Z,366.00
2022-08-17T03:20:47.432Z,367.00
2022-08-17T03:21:47.415Z,365.00
2022-08-17T03:22:53.086Z,366.00
2022-08-17T03:23:47.501Z,367.00
2022-08-17T03:24:47.366Z,370.00
2022-08-17T03:25:47.356Z,368.00
2022-08-17T03:26:47.361Z,370.00
2022-08-17T03:27:48.241Z,370.00
2022-08-17T03:28:47.323Z,371.00
2022-08-17T03:29:47.321Z,369.00
2022-08-17T03:30:47.308Z,372.00
2022-08-17T03:31:47.289Z,374.00
2022-08-17T03:32:47.344Z,373.00
2022-08-17T03:33:47.244Z,373.00
2022-08-17T03:34:47.258Z,374.00
2022-08-17T03:35:47.232Z,372.00
2022-08-17T03:36:47.231Z,369.00
2022-08-17T03:37:47.172Z,369.00
2022-08-17T03:38:47.185Z,370.00
2022-08-17T03:39:47.186Z,370.00
2022-08-17T03:40:57.510Z,369.00
2022-08-17T03:41:47.157Z,369.00
2022-08-17T03:42:47.150Z,368.00
2022-08-17T03:43:47.139Z,369.00
2022-08-17T03:44:47.101Z,370.00
2022-08-17T03:45:47.081Z,372.00
2022-08-17T03:46:47.077Z,374.00
2022-08-17T03:47:47.065Z,376.00
2022-08-17T03:48:47.065Z,378.00
2022-08-17T03:49:47.027Z,376.00
2022-08-17T03:50:47.022Z,374.00
2022-08-17T03:51:46.997Z,374.00
2022-08-17T03:52:46.986Z,377.00
2022-08-17T03:53:46.975Z,377.00
2022-08-17T03:54:46.972Z,377.00
2022-08-17T03:55:46.963Z,378.00
2022-08-17T03:56:46.969Z,377.00
2022-08-17T03:57:46.932Z,378.00
2022-08-17T03:58:46.904Z,378.00
2022-08-17T03:59:46.915Z,376.00
2022-08-17T04:00:46.906Z,376.00
2022-08-17T04:01:46.911Z,375.00
2022-08-17T04:02:46.906Z,374.00
2022-08-17T04:03:46.820Z,374.00
2022-08-17T04:04:46.837Z,376.00
2022-08-17T04:05:46.791Z,379.00
2022-08-17T04:06:46.819Z,381.00
2022-08-17T04:07:46.791Z,379.00
2022-08-17T04:08:46.778Z,381.00
2022-08-17T04:09:46.757Z,382.00
2022-08-17T04:10:46.720Z,385.00
2022-08-17T04:11:46.733Z,386.00
2022-08-17T04:12:46.799Z,389.00
2022-08-17T04:13:46.721Z,388.00
2022-08-17T04:14:53.030Z,387.00
2022-08-17T04:15:46.661Z,387.00
2022-08-17T04:16:47.057Z,389.00
2022-08-17T04:17:46.816Z,389.00
2022-08-17T04:18:47.169Z,390.00
2022-08-17T04:19:46.622Z,391.00
2022-08-17T04:20:46.670Z,390.00
2022-08-17T04:21:46.590Z,388.00
2022-08-17T04:22:46.636Z,391.00
2022-08-17T04:23:47.005Z,392.00
2022-08-17T04:24:46.809Z,395.00
2022-08-17T04:25:46.528Z,392.00
2022-08-17T04:26:53.261Z,393.00
2022-08-17T04:27:46.488Z,393.00
2022-08-17T04:28:46.491Z,392.00
2022-08-17T04:29:55.041Z,392.00
2022-08-17T04:30:46.454Z,390.00
2022-08-17T04:31:46.444Z,389.00
2022-08-17T04:33:04.768Z,388.00
2022-08-17T04:33:46.445Z,389.00
2022-08-17T04:34:46.408Z,391.00
2022-08-17T04:35:46.399Z,392.00
2022-08-17T04:36:50.426Z,396.00
2022-08-17T04:37:46.396Z,396.00
2022-08-17T04:38:46.339Z,395.00
2022-08-17T04:39:46.379Z,394.00
2022-08-17T04:40:46.310Z,394.00
2022-08-17T04:41:46.310Z,393.00
2022-08-17T04:42:46.305Z,395.00
2022-08-17T04:43:46.300Z,395.00
2022-08-17T04:44:46.262Z,398.00
2022-08-17T04:45:55.383Z,399.00
2022-08-17T04:46:46.245Z,394.00
2022-08-17T04:47:46.213Z,395.00
2022-08-17T04:48:46.252Z,398.00
2022-08-17T04:49:46.193Z,400.00
2022-08-17T04:50:46.175Z,400.00
2022-08-17T04:51:54.631Z,399.00
2022-08-17T04:52:46.161Z,399.00
2022-08-17T04:53:46.151Z,398.00
2022-08-17T04:54:46.171Z,401.00
2022-08-17T04:55:46.122Z,401.00
2022-08-17T04:56:46.117Z,402.00
2022-08-17T04:57:46.086Z,402.00
2022-08-17T04:58:46.076Z,402.00
2022-08-17T04:59:46.056Z,403.00
2022-08-17T05:00:46.070Z,402.00
2022-08-17T05:01:46.088Z,402.00
2022-08-17T05:02:50.352Z,401.00
2022-08-17T05:03:46.013Z,404.00
2022-08-17T05:04:46.007Z,404.00
2022-08-17T05:05:45.990Z,403.00
2022-08-17T05:06:45.975Z,405.00
2022-08-17T05:07:45.970Z,405.00
2022-08-17T05:08:45.951Z,406.00
2022-08-17T05:09:46.036Z,404.00
2022-08-17T05:10:45.975Z,403.00
2022-08-17T05:11:45.903Z,402.00
2022-08-17T05:12:46.003Z,403.00
2022-08-17T05:13:45.858Z,404.00
2022-08-17T05:14:45.903Z,403.00
2022-08-17T05:15:47.890Z,400.00
2022-08-17T05:16:45.855Z,400.00
2022-08-17T05:17:45.843Z,400.00
2022-08-17T05:18:45.823Z,399.00
2022-08-17T05:19:51.370Z,399.00
2022-08-17T05:20:45.805Z,397.00
2022-08-17T05:21:45.802Z,396.00
2022-08-17T05:22:45.751Z,397.00
2022-08-17T05:23:53.252Z,397.00
2022-08-17T05:24:53.916Z,398.00
2022-08-17T05:25:47.707Z,398.00
2022-08-17T05:26:45.717Z,396.00
2022-08-17T05:27:45.744Z,394.00
2022-08-17T05:28:45.662Z,394.00
2022-08-17T05:29:45.659Z,394.00
2022-08-17T05:30:45.676Z,395.00
2022-08-17T05:31:45.645Z,397.00
2022-08-17T05:32:45.630Z,401.00
2022-08-17T05:33:46.320Z,399.00
2022-08-17T05:34:45.635Z,397.00
2022-08-17T05:35:45.575Z,400.00
2022-08-17T05:36:45.570Z,401.00
2022-08-17T05:37:45.564Z,400.00
2022-08-17T05:38:45.525Z,399.00
2022-08-17T05:39:45.555Z,401.00
2022-08-17T05:40:45.526Z,401.00
2022-08-17T05:41:45.511Z,400.00
2022-08-17T05:42:45.491Z,399.00
2022-08-17T05:43:45.485Z,400.00
2022-08-17T05:44:45.463Z,398.00
2022-08-17T05:45:55.576Z,396.00
2022-08-17T05:46:45.447Z,397.00
2022-08-17T05:47:45.419Z,395.00
2022-08-17T05:48:45.397Z,396.00
2022-08-17T05:49:45.421Z,395.00
2022-08-17T05:50:45.399Z,392.00
2022-08-17T05:51:45.381Z,393.00
2022-08-17T05:52:45.338Z,394.00
2022-08-17T05:53:45.333Z,395.00
2022-08-17T05:54:45.332Z,397.00
2022-08-17T05:55:45.310Z,397.00
2022-08-17T05:56:45.326Z,396.00
2022-08-17T05:57:53.310Z,398.00
2022-08-17T05:58:45.263Z,395.00
2022-08-17T05:59:45.292Z,394.00
2022-08-17T06:00:45.317Z,395.00
2022-08-17T06:01:45.243Z,393.00
2022-08-17T06:02:47.889Z,393.00
2022-08-17T06:03:45.222Z,390.00
2022-08-17T06:04:45.205Z,391.00
2022-08-17T06:05:45.191Z,389.00
2022-08-17T06:06:45.187Z,389.00
2022-08-17T06:07:45.162Z,389.00
2022-08-17T06:08:45.161Z,389.00
2022-08-17T06:09:45.121Z,388.00
2022-08-17T06:10:45.139Z,391.00
2022-08-17T06:11:45.093Z,391.00
2022-08-17T06:12:45.075Z,391.00
2022-08-17T06:13:45.755Z,388.00
2022-08-17T06:14:45.085Z,388.00
2022-08-17T06:15:45.050Z,388.00
2022-08-17T06:16:45.043Z,385.00
2022-08-17T06:17:45.028Z,382.00
2022-08-17T06:18:45.034Z,382.00
2022-08-17T06:19:44.984Z,383.00
2022-08-17T06:20:44.983Z,382.00
2022-08-17T06:21:45.597Z,379.00
2022-08-17T06:22:44.996Z,379.00
2022-08-17T06:23:45.003Z,375.00
2022-08-17T06:24:44.923Z,373.00
2022-08-17T06:25:44.919Z,374.00
2022-08-17T06:26:44.892Z,373.00
2022-08-17T06:27:44.909Z,374.00
2022-08-17T06:28:44.870Z,374.00
2022-08-17T06:29:44.889Z,372.00
2022-08-17T06:30:59.219Z,372.00
2022-08-17T06:31:49.465Z,368.00
2022-08-17T06:32:44.835Z,367.00
2022-08-17T06:33:44.861Z,367.00
2022-08-17T06:34:44.801Z,365.00
2022-08-17T06:35:44.814Z,365.00
2022-08-17T06:36:44.826Z,362.00
2022-08-17T06:37:44.803Z,359.00
2022-08-17T06:38:44.761Z,358.00
2022-08-17T06:39:44.824Z,358.00
2022-08-17T06:40:44.698Z,357.00
2022-08-17T06:41:44.696Z,358.00
2022-08-17T06:42:54.882Z,355.00
2022-08-17T06:43:47.921Z,354.00
2022-08-17T06:44:51.443Z,355.00
2022-08-17T06:45:44.658Z,355.00
2022-08-17T06:46:44.647Z,354.00
2022-08-17T06:47:44.613Z,352.00
2022-08-17T06:48:44.611Z,352.00
2022-08-17T06:49:44.630Z,352.00
2022-08-17T06:50:44.595Z,351.00
2022-08-17T06:51:44.577Z,352.00
2022-08-17T06:52:46.371Z,354.00
2022-08-17T06:53:44.564Z,353.00
2022-08-17T06:54:44.510Z,351.00
2022-08-17T06:55:44.530Z,349.00
2022-08-17T06:56:53.808Z,349.00
2022-08-17T06:57:44.480Z,349.00
2022-08-17T06:58:44.481Z,349.00
2022-08-17T06:59:55.044Z,350.00
2022-08-17T07:00:44.520Z,350.00
2022-08-17T07:01:44.444Z,350.00
2022-08-17T07:02:52.052Z,351.00
2022-08-17T07:03:44.401Z,350.00
2022-08-17T07:04:44.421Z,350.00
2022-08-17T07:05:44.453Z,348.00
2022-08-17T07:06:44.376Z,348.00
2022-08-17T07:07:44.364Z,346.00
2022-08-17T07:08:44.367Z,344.00
2022-08-17T07:09:44.344Z,342.00
2022-08-17T07:10:44.310Z,345.00
2022-08-17T07:11:44.307Z,347.00
2022-08-17T07:12:44.306Z,349.00
2022-08-17T07:13:44.333Z,351.00
2022-08-17T07:14:44.286Z,352.00
2022-08-17T07:15:44.332Z,350.00
2022-08-17T07:16:44.242Z,351.00
2022-08-17T07:17:47.194Z,349.00
2022-08-17T07:18:44.243Z,351.00
2022-08-17T07:19:44.208Z,350.00
2022-08-17T07:20:44.242Z,348.00
2022-08-17T07:21:44.181Z,347.00
2022-08-17T07:22:57.509Z,343.00
2022-08-17T07:23:44.252Z,340.00
2022-08-17T07:24:44.158Z,337.00
2022-08-17T07:25:44.156Z,336.00
2022-08-17T07:26:44.099Z,339.00
2022-08-17T07:27:44.152Z,338.00
2022-08-17T07:28:44.103Z,339.00
2022-08-17T07:29:44.122Z,340.00
2022-08-17T07:30:47.095Z,342.00
2022-08-17T07:31:44.060Z,342.00
2022-08-17T07:32:44.070Z,341.00
2022-08-17T07:33:44.007Z,338.00
2022-08-17T07:34:44.003Z,337.00
2022-08-17T07:35:44.133Z,336.00
2022-08-17T07:36:44.012Z,336.00
2022-08-17T07:37:43.980Z,334.00
2022-08-17T07:38:43.975Z,333.00
2022-08-17T07:40:14.785Z,335.00
2022-08-17T07:40:43.943Z,334.00
2022-08-17T07:41:57.930Z,331.00
2022-08-17T07:42:46.783Z,330.00
2022-08-17T07:43:43.952Z,330.00
2022-08-17T07:44:43.865Z,331.00
2022-08-17T07:45:43.879Z,332.00
2022-08-17T07:46:43.839Z,330.00
2022-08-17T07:47:43.961Z,328.00
2022-08-17T07:48:43.850Z,326.00
2022-08-17T07:49:43.837Z,323.00
2022-08-17T07:50:49.613Z,322.00
2022-08-17T07:51:43.833Z,319.00
2022-08-17T07:52:51.997Z,319.00
2022-08-17T07:53:43.865Z,320.00
2022-08-17T07:54:43.742Z,320.00
2022-08-17T07:55:43.714Z,319.00
2022-08-17T07:56:43.719Z,317.00
2022-08-17T07:57:43.895Z,315.00
2022-08-17T07:58:43.699Z,317.00
2022-08-17T07:59:43.701Z,316.00
2022-08-17T08:00:43.659Z,315.00
2022-08-17T08:01:43.755Z,315.00
2022-08-17T08:02:43.630Z,311.00
2022-08-17T08:03:43.620Z,311.00
2022-08-17T08:04:59.633Z,311.00
2022-08-17T08:05:49.667Z,311.00
2022-08-17T08:06:43.694Z,312.00
2022-08-17T08:07:43.654Z,316.00
2022-08-17T08:08:43.541Z,319.00
2022-08-17T08:09:43.536Z,323.00
2022-08-17T08:10:45.188Z,324.00
2022-08-17T08:11:44.411Z,321.00
2022-08-17T08:12:43.552Z,321.00
2022-08-17T08:13:43.558Z,322.00
2022-08-17T08:14:43.486Z,321.00
2022-08-17T08:15:45.259Z,319.00
2022-08-17T08:16:43.517Z,317.00
2022-08-17T08:17:43.459Z,319.00
2022-08-17T08:18:53.890Z,320.00
2022-08-17T08:19:43.433Z,320.00
2022-08-17T08:20:52.763Z,323.00
2022-08-17T08:21:43.393Z,322.00
2022-08-17T08:22:43.359Z,323.00
2022-08-17T08:23:43.369Z,321.00
2022-08-17T08:24:43.326Z,317.00
2022-08-17T08:25:43.318Z,320.00
2022-08-17T08:26:43.336Z,320.00
2022-08-17T08:27:43.355Z,323.00
2022-08-17T08:28:43.337Z,323.00
2022-08-17T08:29:43.278Z,325.00
2022-08-17T08:30:43.252Z,325.00
2022-08-17T08:31:43.249Z,325.00
2022-08-17T08:32:43.247Z,322.00
2022-08-17T08:33:43.289Z,322.00
2022-08-17T08:34:47.400Z,322.00
2022-08-17T08:35:43.308Z,324.00
2022-08-17T08:37:12.763Z,321.00
2022-08-17T08:37:43.620Z,319.00
2022-08-17T08:38:43.176Z,317.00
2022-08-17T08:39:43.207Z,317.00
2022-08-17T08:40:43.164Z,317.00
2022-08-17T08:41:44.011Z,318.00
2022-08-17T08:42:43.123Z,322.00
2022-08-17T08:43:43.141Z,321.00
2022-08-17T08:45:00.207Z,326.00
2022-08-17T08:45:43.088Z,324.00
2022-08-17T08:46:43.096Z,323.00
2022-08-17T08:47:43.078Z,326.00
2022-08-17T08:48:53.899Z,326.00
2022-08-17T08:50:03.305Z,325.00
2022-08-17T08:50:43.029Z,325.00
2022-08-17T08:51:43.002Z,319.00
2022-08-17T08:52:42.997Z,316.00
2022-08-17T08:53:42.991Z,317.00
2022-08-17T08:54:42.999Z,318.00
2022-08-17T08:55:42.977Z,317.00
2022-08-17T08:56:53.997Z,318.00
2022-08-17T08:57:42.938Z,316.00
2022-08-17T08:58:43.043Z,316.00
2022-08-17T08:59:44.322Z,315.00
2022-08-17T09:00:42.943Z,315.00
2022-08-17T09:01:42.991Z,317.00
2022-08-17T09:02:42.908Z,318.00
2022-08-17T09:03:52.777Z,319.00
2022-08-17T09:05:10.311Z,318.00
2022-08-17T09:05:42.899Z,320.00
2022-08-17T09:06:42.829Z,321.00
2022-08-17T09:07:42.922Z,321.00
2022-08-17T09:08:42.830Z,319.00
2022-08-17T09:09:42.803Z,318.00
2022-08-17T09:10:42.777Z,317.00
2022-08-17T09:12:01.870Z,320.00
2022-08-17T09:12:42.752Z,317.00
2022-08-17T09:13:42.749Z,318.00
2022-08-17T09:14:46.812Z,318.00
2022-08-17T09:15:42.728Z,315.00
2022-08-17T09:16:42.693Z,314.00
2022-08-17T09:17:42.769Z,314.00
2022-08-17T09:19:02.550Z,315.00
2022-08-17T09:19:42.695Z,320.00
2022-08-17T09:20:46.579Z,323.00
2022-08-17T09:21:48.772Z,323.00
2022-08-17T09:22:42.696Z,322.00
2022-08-17T09:23:42.644Z,325.00
2022-08-17T09:24:42.617Z,325.00
2022-08-17T09:25:42.619Z,329.00
2022-08-17T09:26:42.585Z,329.00
2022-08-17T09:27:42.597Z,330.00
2022-08-17T09:28:42.557Z,328.00
2022-08-17T09:29:42.609Z,329.00
2022-08-17T09:30:42.572Z,331.00
2022-08-17T09:31:49.283Z,329.00
2022-08-17T09:32:42.567Z,331.00
2022-08-17T09:33:42.500Z,331.00
2022-08-17T09:34:43.530Z,332.00
2022-08-17T09:35:42.509Z,331.00
2022-08-17T09:36:42.498Z,330.00
2022-08-17T09:37:42.480Z,326.00
2022-08-17T09:38:42.476Z,326.00
2022-08-17T09:39:42.622Z,325.00
2022-08-17T09:40:42.446Z,324.00
2022-08-17T09:41:48.460Z,326.00
2022-08-17T09:42:42.428Z,328.00
2022-08-17T09:43:42.385Z,325.00
2022-08-17T09:44:42.421Z,327.00
2022-08-17T09:45:42.383Z,327.00
2022-08-17T09:46:42.550Z,328.00
2022-08-17T09:47:42.825Z,330.00
2022-08-17T09:48:42.377Z,340.00
2022-08-17T09:49:42.340Z,342.00
2022-08-17T09:51:05.453Z,337.00
2022-08-17T09:51:42.314Z,331.00
2022-08-17T09:52:42.342Z,324.00
2022-08-17T09:53:44.776Z,318.00
2022-08-17T09:54:42.296Z,308.00
2022-08-17T09:55:42.251Z,303.00
2022-08-17T09:56:46.153Z,305.00
2022-08-17T09:57:42.275Z,315.00
2022-08-17T09:58:42.218Z,321.00
2022-08-17T09:59:42.214Z,308.00
2022-08-17T10:00:42.213Z,322.00
2022-08-17T10:01:42.222Z,326.00
2022-08-17T10:02:42.160Z,313.00
2022-08-17T10:03:42.191Z,313.00
2022-08-17T10:04:42.168Z,314.00
2022-08-17T10:05:42.155Z,319.00
2022-08-17T10:06:42.161Z,321.00
2022-08-17T10:07:42.122Z,321.00
2022-08-17T10:08:42.242Z,317.00
2022-08-17T10:09:42.166Z,317.00
2022-08-17T10:10:42.085Z,320.00
2022-08-17T10:11:44.875Z,321.00
2022-08-17T10:12:46.506Z,324.00
2022-08-17T10:13:52.785Z,326.00
2022-08-17T10:14:43.796Z,330.00
2022-08-17T10:15:42.727Z,334.00
2022-08-17T10:16:42.063Z,336.00
2022-08-17T10:17:42.007Z,336.00
2022-08-17T10:18:42.006Z,338.00
2022-08-17T10:19:44.100Z,338.00
2022-08-17T10:20:42.024Z,335.00
2022-08-17T10:21:41.954Z,333.00
2022-08-17T10:22:41.975Z,335.00
2022-08-17T10:23:41.957Z,340.00
2022-08-17T10:25:21.738Z,346.00
2022-08-17T10:25:54.715Z,332.00
2022-08-17T10:26:56.208Z,330.00
2022-08-17T10:27:41.918Z,331.00
2022-08-17T10:28:41.905Z,339.00
2022-08-17T10:29:48.887Z,343.00
2022-08-17T10:30:41.883Z,341.00
2022-08-17T10:31:41.965Z,336.00
2022-08-17T10:32:41.873Z,325.00
2022-08-17T10:33:41.838Z,277.00
2022-08-17T10:34:42.018Z,267.00
2022-08-17T10:35:41.797Z,280.00
2022-08-17T10:36:41.795Z,293.00
2022-08-17T10:37:41.790Z,305.00
2022-08-17T10:38:41.799Z,307.00
2022-08-17T10:39:52.322Z,314.00
2022-08-17T10:40:41.766Z,315.00
2022-08-17T10:41:41.757Z,327.00
2022-08-17T10:42:41.724Z,321.00
2022-08-17T10:43:41.788Z,317.00
2022-08-17T10:44:41.722Z,320.00
2022-08-17T10:45:41.703Z,323.00
2022-08-17T10:46:41.705Z,407.00
2022-08-17T10:48:00.058Z,351.00
2022-08-17T10:48:41.691Z,393.00
2022-08-17T10:49:41.648Z,357.00
2022-08-17T10:50:41.653Z,339.00
2022-08-17T10:51:41.694Z,326.00
2022-08-17T10:52:41.625Z,320.00
2022-08-17T10:53:41.632Z,315.00
2022-08-17T10:54:41.627Z,309.00
2022-08-17T10:55:41.570Z,304.00
2022-08-17T10:56:41.614Z,304.00
2022-08-17T10:57:41.555Z,300.00
2022-08-17T10:58:41.563Z,295.00
2022-08-17T10:59:41.542Z,292.00
2022-08-17T11:00:41.608Z,289.00
2022-08-17T11:01:41.489Z,307.00
2022-08-17T11:02:41.506Z,331.00
2022-08-17T11:03:41.488Z,315.00
2022-08-17T11:04:41.463Z,307.00
2022-08-17T11:05:43.852Z,303.00
2022-08-17T11:06:41.435Z,297.00
2022-08-17T11:07:41.437Z,295.00
2022-08-17T11:08:41.523Z,295.00
2022-08-17T11:09:41.444Z,290.00
2022-08-17T11:10:41.406Z,291.00
2022-08-17T11:11:41.400Z,287.00
2022-08-17T11:12:42.402Z,289.00
2022-08-17T11:13:41.376Z,289.00
2022-08-17T11:14:41.373Z,287.00
2022-08-17T11:15:41.367Z,285.00
2022-08-17T11:16:41.323Z,285.00
2022-08-17T11:17:41.331Z,285.00
2022-08-17T11:18:41.311Z,284.00
2022-08-17T11:19:41.286Z,283.00
2022-08-17T11:20:41.266Z,281.00
2022-08-17T11:21:41.290Z,279.00
2022-08-17T11:22:41.279Z,277.00
2022-08-17T11:23:41.222Z,277.00
2022-08-17T11:24:44.610Z,277.00
2022-08-17T11:25:41.226Z,199.00
2022-08-17T11:26:41.241Z,260.00
2022-08-17T11:27:41.210Z,290.00
2022-08-17T11:28:41.185Z,300.00
2022-08-17T11:29:41.175Z,323.00
2022-08-17T11:30:41.173Z,318.00
2022-08-17T11:31:41.358Z,310.00
2022-08-17T11:32:47.239Z,301.00
2022-08-17T11:33:41.141Z,299.00
2022-08-17T11:34:41.127Z,279.00
2022-08-17T11:35:41.113Z,286.00
2022-08-17T11:36:41.088Z,290.00
2022-08-17T11:37:41.068Z,289.00
2022-08-17T11:38:41.062Z,255.00
2022-08-17T11:39:41.106Z,170.00
2022-08-17T11:40:43.774Z,313.00
2022-08-17T11:41:41.597Z,310.00
2022-08-17T11:42:41.027Z,266.00
2022-08-17T11:43:42.974Z,297.00
2022-08-17T11:44:40.995Z,293.00
2022-08-17T11:45:40.968Z,294.00
2022-08-17T11:46:41.103Z,301.00
2022-08-17T11:47:40.959Z,284.00
2022-08-17T11:48:40.990Z,287.00
2022-08-17T11:49:41.032Z,286.00
2022-08-17T11:50:40.938Z,284.00
2022-08-17T11:51:40.976Z,255.00
2022-08-17T11:52:40.915Z,340.00
2022-08-17T11:53:41.474Z,293.00
2022-08-17T11:54:40.958Z,288.00
2022-08-17T11:55:44.873Z,290.00
2022-08-17T11:56:40.891Z,295.00
2022-08-17T11:57:40.880Z,296.00
2022-08-17T11:58:40.907Z,301.00
2022-08-17T11:59:40.820Z,305.00
2022-08-17T12:00:40.844Z,307.00
2022-08-17T12:01:40.857Z,310.00
2022-08-17T12:02:44.420Z,292.00
2022-08-17T12:03:40.797Z,280.00
2022-08-17T12:04:40.847Z,304.00
2022-08-17T12:05:40.818Z,315.00
2022-08-17T12:06:40.751Z,318.00
2022-08-17T12:07:40.780Z,318.00
2022-08-17T12:08:40.735Z,314.00
2022-08-17T12:09:40.700Z,310.00
2022-08-17T12:10:40.685Z,306.00
2022-08-17T12:11:57.808Z,302.00
2022-08-17T12:12:40.721Z,301.00
2022-08-17T12:13:40.657Z,431.00
2022-08-17T12:15:08.186Z,242.00
2022-08-17T12:15:40.695Z,302.00
2022-08-17T12:16:40.632Z,310.00
2022-08-17T12:17:42.893Z,310.00
2022-08-17T12:18:40.637Z,303.00
2022-08-17T12:19:40.615Z,299.00
2022-08-17T12:20:40.575Z,296.00
2022-08-17T12:21:40.617Z,292.00
2022-08-17T12:22:40.576Z,291.00
2022-08-17T12:23:40.640Z,297.00
2022-08-17T12:24:40.636Z,311.00
2022-08-17T12:25:40.585Z,300.00
2022-08-17T12:26:40.584Z,292.00
2022-08-17T12:28:04.545Z,317.00
2022-08-17T12:28:40.552Z,242.00